createdAt,value
2023-05-06T00:01:25.541Z,3.20
2023-05-06T00:03:54.237Z,3.90
2023-05-06T00:06:22.561Z,3.20
2023-05-06T00:08:50.780Z,2.80
2023-05-06T00:11:18.794Z,3.50
2023-05-06T00:13:46.817Z,2.80
2023-05-06T00:16:15.456Z,3.10
2023-05-06T00:18:43.690Z,2.80
2023-05-06T00:21:11.670Z,3.20
2023-05-06T00:23:39.699Z,2.50
2023-05-06T00:26:07.713Z,2.70
2023-05-06T00:28:35.859Z,3.20
2023-05-06T00:31:03.852Z,2.80
2023-05-06T00:33:31.994Z,2.20
2023-05-06T00:36:00.125Z,2.70
2023-05-06T00:38:28.308Z,2.30
2023-05-06T00:40:56.739Z,2.40
2023-05-06T00:43:24.853Z,2.30
2023-05-06T00:45:53.200Z,2.50
2023-05-06T00:48:21.800Z,3.30
2023-05-06T00:50:50.026Z,2.60
2023-05-06T00:53:23.517Z,2.80
2023-05-06T00:55:51.672Z,2.90
2023-05-06T00:58:20.708Z,2.30
2023-05-06T01:00:52.483Z,2.40
2023-05-06T01:03:21.151Z,2.40
2023-05-06T01:06:15.305Z,2.30
2023-05-06T01:09:06.177Z,2.40
2023-05-06T01:11:45.728Z,2.70
2023-05-06T01:14:41.646Z,2.70
2023-05-06T01:17:13.155Z,2.30
2023-05-06T01:19:49.125Z,2.20
2023-05-06T01:22:18.467Z,2.30
2023-05-06T01:24:47.079Z,2.10
2023-05-06T01:27:17.011Z,2.20
2023-05-06T01:29:47.335Z,2.10
2023-05-06T01:32:18.356Z,2.30
2023-05-06T01:35:00.024Z,2.10
2023-05-06T01:37:37.276Z,2.70
2023-05-06T01:40:07.753Z,3.00
2023-05-06T01:42:38.032Z,2.40
2023-05-06T01:45:08.624Z,1.90
2023-05-06T01:47:40.849Z,2.20
2023-05-06T01:50:10.017Z,2.20
2023-05-06T01:52:38.036Z,1.90
2023-05-06T01:55:07.132Z,1.90
2023-05-06T01:57:35.883Z,2.20
2023-05-06T02:02:40.468Z,2.30
2023-05-06T02:07:39.434Z,1.90
2023-05-06T02:10:08.975Z,2.40
2023-05-06T02:12:39.881Z,1.90
2023-05-06T02:15:09.241Z,1.90
2023-05-06T02:17:38.742Z,1.80
2023-05-06T02:20:09.691Z,2.30
2023-05-06T02:22:37.752Z,2.00
2023-05-06T02:25:06.620Z,2.10
2023-05-06T04:47:44.770Z,2.40
2023-05-06T04:50:13.749Z,2.30
2023-05-06T04:52:42.662Z,2.30
2023-05-06T04:55:12.572Z,2.20
2023-05-06T04:57:45.540Z,1.90
2023-05-06T05:00:14.755Z,2.10
2023-05-06T05:02:43.248Z,2.00
2023-05-06T05:05:12.710Z,2.00
2023-05-06T05:07:41.618Z,1.80
2023-05-06T05:10:10.836Z,2.00
2023-05-06T05:12:39.815Z,2.30
2023-05-06T05:15:08.678Z,2.30
2023-05-06T05:17:38.448Z,2.40
2023-05-06T05:20:08.037Z,2.10
2023-05-06T05:22:37.459Z,1.90
2023-05-06T05:25:08.326Z,2.30
2023-05-06T05:27:37.025Z,2.10
2023-05-06T05:30:05.912Z,2.20
2023-05-06T05:32:34.769Z,2.30
2023-05-06T05:35:03.880Z,1.70
2023-05-06T05:37:32.102Z,2.50
2023-05-06T05:40:00.163Z,2.00
2023-05-06T05:42:28.256Z,1.90
2023-05-06T05:44:57.465Z,2.00
2023-05-06T05:47:26.413Z,2.30
2023-05-06T05:49:55.110Z,2.20
2023-05-06T05:52:24.834Z,2.10
2023-05-06T05:54:52.950Z,2.80
2023-05-06T05:57:21.473Z,2.40
2023-05-06T05:59:49.593Z,2.40
2023-05-06T06:02:18.123Z,2.20
2023-05-06T06:04:46.317Z,2.50
2023-05-06T06:07:14.457Z,2.70
2023-05-06T06:09:46.837Z,2.80
2023-05-06T06:12:15.717Z,2.40
2023-05-06T06:14:48.144Z,2.50
2023-05-06T06:17:18.268Z,2.00
2023-05-06T06:19:47.318Z,2.50
2023-05-06T06:22:15.315Z,2.70
2023-05-06T06:24:43.979Z,2.60
2023-05-06T06:27:12.458Z,1.90
2023-05-06T06:29:40.881Z,2.00
2023-05-06T06:34:37.122Z,2.20
2023-05-06T06:37:06.730Z,1.90
2023-05-06T06:39:35.972Z,2.00
2023-05-06T06:42:04.489Z,2.50
2023-05-06T06:44:37.432Z,4.30
2023-05-06T06:47:05.547Z,2.20
2023-05-06T06:49:33.598Z,3.10
2023-05-06T06:52:01.586Z,1.90
2023-05-06T06:54:29.810Z,2.20
2023-05-06T06:56:57.828Z,2.10
2023-05-06T06:59:25.815Z,1.50
2023-05-06T07:01:53.864Z,2.20
2023-05-06T07:04:21.971Z,1.90
2023-05-06T07:06:50.006Z,2.00
2023-05-06T07:09:18.167Z,2.00
2023-05-06T07:11:46.248Z,2.10
2023-05-06T07:14:14.376Z,1.90
2023-05-06T07:16:44.520Z,2.10
2023-05-06T07:19:14.121Z,2.00
2023-05-06T07:21:42.340Z,2.00
2023-05-06T07:24:10.370Z,2.10
2023-05-06T07:26:38.677Z,2.60
2023-05-06T07:29:06.697Z,2.00
2023-05-06T07:31:34.893Z,2.40
2023-05-06T07:34:02.933Z,2.20
2023-05-06T07:36:36.117Z,2.00
2023-05-06T07:39:05.698Z,2.10
2023-05-06T07:44:02.344Z,1.80
2023-05-06T07:46:30.581Z,1.60
2023-05-06T07:48:58.883Z,2.10
2023-05-06T07:51:27.133Z,2.00
2023-05-06T07:53:55.221Z,1.80
2023-05-06T07:56:23.241Z,2.20
2023-05-06T07:58:51.467Z,1.90
2023-05-06T08:03:47.640Z,10.20
2023-05-06T08:08:44.048Z,2.00
2023-05-06T08:11:12.063Z,3.60
2023-05-06T08:13:40.182Z,3.10
2023-05-06T08:16:08.379Z,1.90
2023-05-06T08:18:36.429Z,2.10
2023-05-06T08:21:04.960Z,2.10
2023-05-06T08:23:33.065Z,2.00
2023-05-06T08:26:02.189Z,2.60
2023-05-06T08:28:30.309Z,1.80
2023-05-06T08:30:58.331Z,1.90
2023-05-06T08:33:26.451Z,1.90
2023-05-06T08:35:57.784Z,2.00
2023-05-06T08:38:26.648Z,2.00
2023-05-06T08:43:26.297Z,1.80
2023-05-06T08:45:55.611Z,1.90
2023-05-06T08:48:23.695Z,2.30
2023-05-06T08:50:54.811Z,1.90
2023-05-06T08:53:23.248Z,2.40
2023-05-06T08:55:53.983Z,2.30
2023-05-06T08:58:24.915Z,2.50
2023-05-06T09:00:53.083Z,16.00
2023-05-06T09:03:21.434Z,3.50
2023-05-06T09:05:49.667Z,2.20
2023-05-06T09:08:17.788Z,2.80
2023-05-06T09:13:19.957Z,1.90
2023-05-06T09:15:49.271Z,2.40
2023-05-06T09:18:17.392Z,1.70
2023-05-06T09:20:47.742Z,2.30
2023-05-06T09:23:18.068Z,2.10
2023-05-06T09:25:47.987Z,2.10
2023-05-06T09:28:16.000Z,1.90
2023-05-06T09:30:47.680Z,1.80
2023-05-06T09:33:16.308Z,2.30
2023-05-06T09:35:44.575Z,2.40
2023-05-06T09:38:12.681Z,2.20
2023-05-06T09:40:41.015Z,1.80
2023-05-06T09:43:10.221Z,2.00
2023-05-06T09:45:39.067Z,1.90
2023-05-06T09:48:08.634Z,2.00
2023-05-06T09:50:37.010Z,2.50
2023-05-06T09:53:06.033Z,1.90
2023-05-06T09:55:35.552Z,1.80
2023-05-06T09:58:06.433Z,2.00
2023-05-06T10:00:35.716Z,1.70
2023-05-06T10:03:05.187Z,2.10
2023-05-06T10:05:35.123Z,1.80
2023-05-06T10:08:04.584Z,2.10
2023-05-06T10:10:34.508Z,1.80
2023-05-06T10:13:04.787Z,1.80
2023-05-06T10:15:33.458Z,2.00
2023-05-06T10:18:02.122Z,2.30
2023-05-06T10:20:31.707Z,2.20
2023-05-06T10:23:14.985Z,2.40
2023-05-06T10:25:45.019Z,2.30
2023-05-06T10:28:26.268Z,2.10
2023-05-06T10:33:29.337Z,2.40
2023-05-06T10:36:20.655Z,2.10
2023-05-06T10:38:56.994Z,2.00
2023-05-06T10:41:28.131Z,2.10
2023-05-06T10:43:57.784Z,1.90
2023-05-06T10:46:27.957Z,1.80
2023-05-06T10:49:06.401Z,2.30
2023-05-06T10:51:43.977Z,2.00
2023-05-06T10:54:32.266Z,2.40
2023-05-06T10:57:10.672Z,2.10
2023-05-06T10:59:46.297Z,2.00
2023-05-06T11:02:16.881Z,2.40
2023-05-06T11:04:51.971Z,2.50
2023-05-06T11:07:24.172Z,2.40
2023-05-06T11:10:01.103Z,4.70
2023-05-06T11:12:47.740Z,1.70
2023-05-06T11:15:19.764Z,2.20
2023-05-06T11:17:47.874Z,4.10
2023-05-06T11:22:52.031Z,2.10
2023-05-06T11:25:47.846Z,2.20
2023-05-06T11:28:16.192Z,2.80
2023-05-06T11:30:54.023Z,7.30
2023-05-06T11:33:24.754Z,5.30
2023-05-06T11:35:53.374Z,1.90
2023-05-06T11:38:21.497Z,1.70
2023-05-06T11:40:49.624Z,1.50
2023-05-06T11:43:17.736Z,1.50
2023-05-06T11:45:50.808Z,1.40
2023-05-06T11:48:18.989Z,1.40
2023-05-06T11:50:48.704Z,1.50
2023-05-06T11:53:19.229Z,1.90
2023-05-06T11:55:49.472Z,1.60
2023-05-06T11:58:28.932Z,1.70
2023-05-06T12:00:59.220Z,1.50
2023-05-06T12:03:29.517Z,1.30
2023-05-06T12:05:58.010Z,1.60
2023-05-06T12:08:36.386Z,1.50
2023-05-06T12:11:09.096Z,2.30
2023-05-06T12:13:37.938Z,1.30
2023-05-06T12:16:08.428Z,1.40
2023-05-06T12:18:36.570Z,1.70
2023-05-06T12:21:04.688Z,1.20
2023-05-06T12:23:33.171Z,1.10
2023-05-06T12:26:06.836Z,0.90
2023-05-06T12:28:37.092Z,1.20
2023-05-06T12:31:24.263Z,1.20
2023-05-06T12:33:53.307Z,1.00
2023-05-06T12:36:22.911Z,1.70
2023-05-06T12:41:24.377Z,1.30
2023-05-06T12:43:53.091Z,1.10
2023-05-06T12:46:21.376Z,1.00
2023-05-06T12:49:00.546Z,1.10
2023-05-06T12:51:30.909Z,1.10
2023-05-06T12:53:59.024Z,1.00
2023-05-06T12:56:27.041Z,1.10
2023-05-06T12:58:59.073Z,1.30
2023-05-06T13:01:27.367Z,1.20
2023-05-06T13:03:57.560Z,1.20
2023-05-06T13:06:25.750Z,1.20
2023-05-06T13:11:22.459Z,1.60
2023-05-06T13:13:50.701Z,2.00
2023-05-06T13:16:18.858Z,0.90
2023-05-06T13:18:47.047Z,1.20
2023-05-06T13:21:15.163Z,1.20
2023-05-06T13:23:47.710Z,1.10
2023-05-06T13:26:16.132Z,1.40
2023-05-06T13:31:12.278Z,1.50
2023-05-06T13:36:08.920Z,1.50
2023-05-06T13:38:36.926Z,1.90
2023-05-06T13:41:05.945Z,1.30
2023-05-06T13:43:33.967Z,1.50
2023-05-06T13:46:02.037Z,1.30
2023-05-06T13:50:58.323Z,1.50
2023-05-06T13:55:54.567Z,1.40
2023-05-06T13:58:22.586Z,1.50
2023-05-06T14:00:50.749Z,1.30
2023-05-06T14:05:46.741Z,1.30
2023-05-06T14:08:14.767Z,1.30
2023-05-06T14:10:42.785Z,1.60
2023-05-06T14:13:11.622Z,1.40
2023-05-06T14:15:39.727Z,1.70
2023-05-06T14:18:07.782Z,1.10
2023-05-06T14:20:36.084Z,1.20
2023-05-06T14:25:35.118Z,1.30
2023-05-06T14:28:03.351Z,1.20
2023-05-06T14:30:32.560Z,1.10
2023-05-06T14:33:00.728Z,1.30
2023-05-06T14:37:56.813Z,1.00
2023-05-06T14:40:25.029Z,3.30
2023-05-06T14:45:21.779Z,4.50
2023-05-06T14:47:49.919Z,3.20
2023-05-06T14:52:46.850Z,4.50
2023-05-06T14:55:15.164Z,2.90
2023-05-06T15:00:14.941Z,2.60
2023-05-06T15:02:43.258Z,1.80
2023-05-06T15:07:40.884Z,1.10
2023-05-06T15:10:09.298Z,1.70
2023-05-06T15:12:37.622Z,1.00
2023-05-06T15:15:06.744Z,1.00
2023-05-06T15:17:34.984Z,1.20
2023-05-06T15:20:04.587Z,1.30
2023-05-06T15:22:32.612Z,1.20
2023-05-06T15:25:01.665Z,1.20
2023-05-06T15:27:30.856Z,1.10
2023-05-06T15:30:04.234Z,1.10
2023-05-06T15:32:32.340Z,1.40
2023-05-06T15:35:01.244Z,1.00
2023-05-06T15:37:29.267Z,0.90
2023-05-06T15:39:57.781Z,1.00
2023-05-06T15:42:26.007Z,1.10
2023-05-06T15:44:55.225Z,1.20
2023-05-06T15:47:23.298Z,1.00
2023-05-06T15:49:54.872Z,0.90
2023-05-06T15:52:23.608Z,1.20
2023-05-06T15:54:51.786Z,0.90
2023-05-06T15:57:19.845Z,0.80
2023-05-06T15:59:47.859Z,0.70
2023-05-06T16:04:47.154Z,1.00
2023-05-06T16:07:15.927Z,1.30
2023-05-06T16:09:44.752Z,1.40
2023-05-06T16:12:14.776Z,1.80
2023-05-06T16:14:42.813Z,1.10
2023-05-06T16:17:10.920Z,1.10
2023-05-06T16:19:38.942Z,1.40
2023-05-06T16:22:06.968Z,2.80
2023-05-06T16:24:34.975Z,4.40
2023-05-06T16:27:03.098Z,6.60
2023-05-06T16:29:31.516Z,12.90
2023-05-06T16:32:00.857Z,6.60
2023-05-06T16:34:28.998Z,4.60
2023-05-06T16:36:58.388Z,1.90
2023-05-06T16:39:26.506Z,2.10
2023-05-06T16:41:54.521Z,1.60
2023-05-06T16:44:22.558Z,2.30
2023-05-06T16:46:50.575Z,3.80
2023-05-06T16:49:21.213Z,1.80
2023-05-06T16:51:49.216Z,2.30
2023-05-06T16:54:17.441Z,2.30
2023-05-06T16:56:52.158Z,3.20
2023-05-06T16:59:22.383Z,3.80
2023-05-06T17:01:51.024Z,7.50
2023-05-06T17:04:19.159Z,4.00
2023-05-06T17:06:47.443Z,4.60
2023-05-06T17:09:15.588Z,13.40
2023-05-06T17:11:44.050Z,12.60
2023-05-06T17:14:12.024Z,4.20
2023-05-06T17:16:40.786Z,2.90
2023-05-06T17:19:09.164Z,2.10
2023-05-06T17:21:37.189Z,2.20
2023-05-06T17:24:06.216Z,2.20
2023-05-06T17:26:35.286Z,1.90
2023-05-06T17:29:03.456Z,2.00
2023-05-06T17:31:31.491Z,4.00
2023-05-06T17:33:59.792Z,2.70
2023-05-06T17:36:28.111Z,1.90
2023-05-06T17:39:06.082Z,2.20
2023-05-06T17:41:34.195Z,1.70
2023-05-06T17:44:02.157Z,1.50
2023-05-06T17:46:31.428Z,1.40
2023-05-06T17:48:59.657Z,3.00
2023-05-06T17:51:27.669Z,2.90
2023-05-06T17:53:56.004Z,3.10
2023-05-06T17:56:24.615Z,2.10
2023-05-06T17:58:53.037Z,1.40
2023-05-06T18:01:21.071Z,4.00
2023-05-06T18:03:49.433Z,2.80
2023-05-06T18:06:18.802Z,1.40
2023-05-06T18:08:47.222Z,1.60
2023-05-06T18:11:16.246Z,1.30
2023-05-06T18:13:44.370Z,1.30
2023-05-06T18:16:12.424Z,1.40
2023-05-06T18:18:40.605Z,1.20
2023-05-06T18:21:08.623Z,1.70
2023-05-06T18:23:36.656Z,2.30
2023-05-06T18:26:05.962Z,3.80
2023-05-06T18:28:37.055Z,14.10
2023-05-06T18:31:06.781Z,11.80
2023-05-06T18:33:35.946Z,9.60
2023-05-06T18:36:04.089Z,8.90
2023-05-06T18:38:32.203Z,3.10
2023-05-06T18:41:02.020Z,1.50
2023-05-06T18:43:30.933Z,0.80
2023-05-06T18:45:59.114Z,1.10
2023-05-06T18:48:27.274Z,1.20
2023-05-06T18:50:55.498Z,1.10
2023-05-06T18:53:23.523Z,0.80
2023-05-06T18:55:51.835Z,0.90
2023-05-06T18:58:19.969Z,0.80
2023-05-06T19:00:48.021Z,0.70
2023-05-06T19:03:16.100Z,0.80
2023-05-06T19:05:44.122Z,0.90
2023-05-06T19:08:13.946Z,0.80
2023-05-06T19:10:41.964Z,0.70
2023-05-06T19:13:10.049Z,0.90
2023-05-06T19:15:38.116Z,0.90
2023-05-06T19:18:07.165Z,0.80
2023-05-06T19:20:35.750Z,1.40
2023-05-06T19:23:04.921Z,5.00
2023-05-06T19:25:36.608Z,4.70
2023-05-06T19:28:05.834Z,1.80
2023-05-06T19:30:35.713Z,1.10
2023-05-06T19:33:04.638Z,0.80
2023-05-06T19:35:32.802Z,1.20
2023-05-06T19:38:00.916Z,1.60
2023-05-06T19:40:29.237Z,1.30
2023-05-06T19:43:03.787Z,0.90
2023-05-06T19:45:33.161Z,0.80
2023-05-06T19:48:04.239Z,0.90
2023-05-06T19:50:35.502Z,0.70
2023-05-06T19:53:03.608Z,0.80
2023-05-06T19:55:32.210Z,0.60
2023-05-06T19:58:00.645Z,0.90
2023-05-06T20:00:30.410Z,0.90
2023-05-06T20:03:00.122Z,1.00
2023-05-06T20:05:32.082Z,1.00
2023-05-06T20:08:00.551Z,0.90
2023-05-06T20:10:29.058Z,1.00
2023-05-06T20:15:26.849Z,0.90
2023-05-06T20:17:54.984Z,1.00
2023-05-06T20:20:23.249Z,2.00
2023-05-06T20:22:51.281Z,1.60
2023-05-06T20:25:19.758Z,1.00
2023-05-06T20:30:15.690Z,0.80
2023-05-06T20:32:43.881Z,1.20
2023-05-06T20:35:14.076Z,1.50
2023-05-06T20:37:42.196Z,0.80
2023-05-06T20:40:10.921Z,0.90
2023-05-06T20:42:38.938Z,0.90
2023-05-06T20:45:07.852Z,1.20
2023-05-06T20:47:36.714Z,1.00
2023-05-06T20:50:05.399Z,0.80
2023-05-06T20:52:34.333Z,0.70
2023-05-06T20:55:03.427Z,0.80
2023-05-06T20:57:31.462Z,0.90
2023-05-06T20:59:59.685Z,1.00
2023-05-06T21:02:30.183Z,0.90
2023-05-06T21:04:58.334Z,0.90
2023-05-06T21:07:26.354Z,0.70
2023-05-06T21:09:54.367Z,1.40
2023-05-06T21:12:22.395Z,1.10
2023-05-06T21:14:50.410Z,1.10
2023-05-06T21:17:18.460Z,0.70
2023-05-06T21:19:48.763Z,0.60
2023-05-06T21:22:16.772Z,0.90
2023-05-06T21:24:44.793Z,0.90
2023-05-06T21:27:12.818Z,1.00
2023-05-06T21:29:40.838Z,0.90
2023-05-06T21:32:08.955Z,0.90
2023-05-06T21:34:36.975Z,0.90
2023-05-06T21:37:05.111Z,1.00
2023-05-06T21:39:33.114Z,0.80
2023-05-06T21:42:01.443Z,0.90
2023-05-06T21:44:29.454Z,1.10
2023-05-06T21:46:57.514Z,0.70
2023-05-06T21:49:25.630Z,0.60
2023-05-06T21:51:53.614Z,0.60
2023-05-06T21:54:21.836Z,0.80
2023-05-06T21:56:50.049Z,0.90
2023-05-06T21:59:19.872Z,1.00
2023-05-06T22:01:48.379Z,0.80
2023-05-06T22:04:16.981Z,1.00
2023-05-06T22:06:45.142Z,0.60
2023-05-06T22:09:13.361Z,1.00
2023-05-06T22:11:41.484Z,0.80
2023-05-06T22:14:09.647Z,0.90
2023-05-06T22:16:41.683Z,0.90
2023-05-06T22:19:09.757Z,0.60
2023-05-06T22:21:37.877Z,1.00
2023-05-06T22:24:06.404Z,0.80
2023-05-06T22:29:02.443Z,0.80
2023-05-06T22:31:30.606Z,0.90
2023-05-06T22:34:03.718Z,1.10
2023-05-06T22:36:34.833Z,0.80
2023-05-06T22:39:03.149Z,0.90
2023-05-06T22:41:31.363Z,0.80
2023-05-06T22:44:00.215Z,0.80
2023-05-06T22:46:29.296Z,1.00
2023-05-06T22:48:58.132Z,0.90
2023-05-06T22:51:26.263Z,0.70
2023-05-06T22:53:54.274Z,0.90
2023-05-06T22:56:22.294Z,1.10
2023-05-06T22:58:50.407Z,0.80
2023-05-06T23:01:18.805Z,1.00
2023-05-06T23:03:46.953Z,0.70
2023-05-06T23:06:15.072Z,0.90
2023-05-06T23:08:43.095Z,0.70
2023-05-06T23:11:11.107Z,0.90
2023-05-06T23:13:39.129Z,1.30
2023-05-06T23:16:07.962Z,0.70
2023-05-06T23:18:36.774Z,0.80
2023-05-06T23:21:05.199Z,1.10
2023-05-06T23:23:33.217Z,0.90
2023-05-06T23:26:01.235Z,0.80
2023-05-06T23:28:29.572Z,0.70
2023-05-06T23:30:57.776Z,0.90
2023-05-06T23:33:25.897Z,1.00
2023-05-06T23:35:53.917Z,1.10
2023-05-06T23:38:21.940Z,1.00
2023-05-06T23:40:49.959Z,0.80
2023-05-06T23:43:17.977Z,1.10
2023-05-06T23:45:46.151Z,0.80
2023-05-06T23:48:14.216Z,1.00
2023-05-06T23:50:42.242Z,0.50
2023-05-06T23:53:10.357Z,1.20
2023-05-06T23:55:38.476Z,1.30
2023-05-06T23:58:06.494Z,1.00
